sensor_id;sensor_type;location;lat;lon;timestamp;P1;durP1;ratioP1;P2;durP2;ratioP2
47103;SDS011;32853;52.164;5.400;2022-08-02T00:00:01;5.17;;;1.53;;
47103;SDS011;32853;52.164;5.400;2022-08-02T00:02:27;8.35;;;2.08;;
47103;SDS011;32853;52.164;5.400;2022-08-02T00:04:52;4.63;;;1.63;;
47103;SDS011;32853;52.164;5.400;2022-08-02T00:07:17;5.30;;;1.65;;
47103;SDS011;32853;52.164;5.400;2022-08-02T00:09:43;7.75;;;1.67;;
47103;SDS011;32853;52.164;5.400;2022-08-02T00:12:09;5.77;;;1.70;;
47103;SDS011;32853;52.164;5.400;2022-08-02T00:14:34;5.18;;;1.60;;
47103;SDS011;32853;52.164;5.400;2022-08-02T00:17:00;4.68;;;1.70;;
47103;SDS011;32853;52.164;5.400;2022-08-02T00:19:26;4.53;;;2.13;;
47103;SDS011;32853;52.164;5.400;2022-08-02T00:21:51;5.80;;;1.70;;
47103;SDS011;32853;52.164;5.400;2022-08-02T00:24:17;8.77;;;2.27;;
47103;SDS011;32853;52.164;5.400;2022-08-02T00:26:43;7.28;;;2.05;;
47103;SDS011;32853;52.164;5.400;2022-08-02T00:29:09;4.38;;;1.90;;
47103;SDS011;32853;52.164;5.400;2022-08-02T00:31:34;7.93;;;1.50;;
47103;SDS011;32853;52.164;5.400;2022-08-02T00:33:59;4.53;;;2.27;;
47103;SDS011;32853;52.164;5.400;2022-08-02T00:36:25;6.30;;;1.93;;
47103;SDS011;32853;52.164;5.400;2022-08-02T00:38:50;7.15;;;1.85;;
47103;SDS011;32853;52.164;5.400;2022-08-02T00:41:17;4.37;;;1.87;;
47103;SDS011;32853;52.164;5.400;2022-08-02T00:43:44;5.22;;;1.40;;
47103;SDS011;32853;52.164;5.400;2022-08-02T00:46:11;10.60;;;1.80;;
47103;SDS011;32853;52.164;5.400;2022-08-02T00:48:37;7.00;;;1.98;;
47103;SDS011;32853;52.164;5.400;2022-08-02T00:51:03;6.57;;;1.90;;
47103;SDS011;32853;52.164;5.400;2022-08-02T00:53:32;6.30;;;1.70;;
47103;SDS011;32853;52.164;5.400;2022-08-02T00:55:58;6.35;;;1.67;;
47103;SDS011;32853;52.164;5.400;2022-08-02T00:58:24;7.68;;;3.10;;
47103;SDS011;32853;52.164;5.400;2022-08-02T01:00:49;5.80;;;1.92;;
47103;SDS011;32853;52.164;5.400;2022-08-02T01:03:15;12.57;;;2.47;;
47103;SDS011;32853;52.164;5.400;2022-08-02T01:05:40;9.70;;;2.60;;
47103;SDS011;32853;52.164;5.400;2022-08-02T01:08:06;6.17;;;2.20;;
47103;SDS011;32853;52.164;5.400;2022-08-02T01:10:31;4.30;;;1.90;;
47103;SDS011;32853;52.164;5.400;2022-08-02T01:12:56;5.80;;;2.30;;
47103;SDS011;32853;52.164;5.400;2022-08-02T01:15:22;5.60;;;2.17;;
47103;SDS011;32853;52.164;5.400;2022-08-02T01:17:53;9.43;;;2.03;;
47103;SDS011;32853;52.164;5.400;2022-08-02T01:20:35;10.50;;;2.65;;
47103;SDS011;32853;52.164;5.400;2022-08-02T01:23:05;5.10;;;2.10;;
47103;SDS011;32853;52.164;5.400;2022-08-02T01:31:28;4.28;;;2.10;;
47103;SDS011;32853;52.164;5.400;2022-08-02T01:34:01;5.85;;;2.03;;
47103;SDS011;32853;52.164;5.400;2022-08-02T01:36:31;4.45;;;1.83;;
47103;SDS011;32853;52.164;5.400;2022-08-02T01:39:02;8.32;;;2.72;;
47103;SDS011;32853;52.164;5.400;2022-08-02T01:41:41;5.07;;;1.75;;
47103;SDS011;32853;52.164;5.400;2022-08-02T01:44:06;6.70;;;2.00;;
47103;SDS011;32853;52.164;5.400;2022-08-02T01:46:36;8.02;;;1.95;;
47103;SDS011;32853;52.164;5.400;2022-08-02T01:49:04;4.70;;;1.65;;
47103;SDS011;32853;52.164;5.400;2022-08-02T01:51:33;7.18;;;1.67;;
47103;SDS011;32853;52.164;5.400;2022-08-02T01:54:19;5.25;;;1.83;;
47103;SDS011;32853;52.164;5.400;2022-08-02T01:56:49;6.03;;;1.67;;
47103;SDS011;32853;52.164;5.400;2022-08-02T01:59:17;3.50;;;1.50;;
47103;SDS011;32853;52.164;5.400;2022-08-02T02:01:45;11.30;;;2.15;;
47103;SDS011;32853;52.164;5.400;2022-08-02T02:04:12;5.68;;;1.98;;
47103;SDS011;32853;52.164;5.400;2022-08-02T02:06:39;4.47;;;1.80;;
47103;SDS011;32853;52.164;5.400;2022-08-02T02:09:06;6.45;;;2.03;;
47103;SDS011;32853;52.164;5.400;2022-08-02T02:11:33;5.68;;;1.83;;
47103;SDS011;32853;52.164;5.400;2022-08-02T02:13:59;4.32;;;1.60;;
47103;SDS011;32853;52.164;5.400;2022-08-02T02:16:29;4.97;;;1.77;;
47103;SDS011;32853;52.164;5.400;2022-08-02T02:18:56;6.28;;;1.63;;
47103;SDS011;32853;52.164;5.400;2022-08-02T02:21:25;5.78;;;1.48;;
47103;SDS011;32853;52.164;5.400;2022-08-02T02:23:51;4.90;;;1.80;;
47103;SDS011;32853;52.164;5.400;2022-08-02T02:26:16;5.70;;;1.90;;
47103;SDS011;32853;52.164;5.400;2022-08-02T02:28:43;4.18;;;1.77;;
47103;SDS011;32853;52.164;5.400;2022-08-02T02:31:28;5.63;;;1.53;;
47103;SDS011;32853;52.164;5.400;2022-08-02T02:34:00;5.60;;;2.10;;
47103;SDS011;32853;52.164;5.400;2022-08-02T02:39:17;4.90;;;1.83;;
47103;SDS011;32853;52.164;5.400;2022-08-02T02:41:46;8.38;;;2.08;;
47103;SDS011;32853;52.164;5.400;2022-08-02T02:44:15;9.35;;;2.22;;
47103;SDS011;32853;52.164;5.400;2022-08-02T02:46:43;5.30;;;2.00;;
47103;SDS011;32853;52.164;5.400;2022-08-02T02:49:10;4.10;;;1.83;;
47103;SDS011;32853;52.164;5.400;2022-08-02T02:51:40;8.43;;;2.40;;
47103;SDS011;32853;52.164;5.400;2022-08-02T02:54:07;8.43;;;2.53;;
47103;SDS011;32853;52.164;5.400;2022-08-02T02:56:36;5.25;;;2.50;;
47103;SDS011;32853;52.164;5.400;2022-08-02T02:59:02;6.22;;;2.17;;
47103;SDS011;32853;52.164;5.400;2022-08-02T03:01:28;10.85;;;3.03;;
47103;SDS011;32853;52.164;5.400;2022-08-02T03:03:59;5.70;;;2.80;;
47103;SDS011;32853;52.164;5.400;2022-08-02T03:06:27;6.30;;;2.22;;
47103;SDS011;32853;52.164;5.400;2022-08-02T03:08:52;8.65;;;3.03;;
47103;SDS011;32853;52.164;5.400;2022-08-02T03:11:18;8.27;;;2.75;;
47103;SDS011;32853;52.164;5.400;2022-08-02T03:13:44;7.55;;;2.10;;
47103;SDS011;32853;52.164;5.400;2022-08-02T03:16:11;7.65;;;2.53;;
47103;SDS011;32853;52.164;5.400;2022-08-02T03:18:44;7.18;;;2.78;;
47103;SDS011;32853;52.164;5.400;2022-08-02T03:23:46;6.80;;;2.30;;
47103;SDS011;32853;52.164;5.400;2022-08-02T03:26:11;5.63;;;2.20;;
47103;SDS011;32853;52.164;5.400;2022-08-02T03:28:38;8.95;;;2.20;;
47103;SDS011;32853;52.164;5.400;2022-08-02T03:31:04;8.38;;;1.90;;
47103;SDS011;32853;52.164;5.400;2022-08-02T03:33:37;7.20;;;1.90;;
47103;SDS011;32853;52.164;5.400;2022-08-02T03:36:07;4.35;;;2.47;;
47103;SDS011;32853;52.164;5.400;2022-08-02T03:38:37;7.95;;;2.00;;
47103;SDS011;32853;52.164;5.400;2022-08-02T03:41:05;7.05;;;2.00;;
47103;SDS011;32853;52.164;5.400;2022-08-02T03:43:36;4.60;;;1.83;;
47103;SDS011;32853;52.164;5.400;2022-08-02T03:46:02;4.30;;;2.00;;
47103;SDS011;32853;52.164;5.400;2022-08-02T03:48:29;4.93;;;1.83;;
47103;SDS011;32853;52.164;5.400;2022-08-02T03:50:57;6.57;;;1.90;;
47103;SDS011;32853;52.164;5.400;2022-08-02T03:53:23;7.05;;;2.20;;
47103;SDS011;32853;52.164;5.400;2022-08-02T03:55:49;5.32;;;2.13;;
47103;SDS011;32853;52.164;5.400;2022-08-02T03:58:18;6.07;;;2.20;;
47103;SDS011;32853;52.164;5.400;2022-08-02T04:00:45;7.07;;;2.30;;
47103;SDS011;32853;52.164;5.400;2022-08-02T04:03:11;4.88;;;1.80;;
47103;SDS011;32853;52.164;5.400;2022-08-02T04:05:38;5.73;;;2.00;;
47103;SDS011;32853;52.164;5.400;2022-08-02T04:08:03;5.65;;;2.40;;
47103;SDS011;32853;52.164;5.400;2022-08-02T04:10:29;5.68;;;1.83;;
47103;SDS011;32853;52.164;5.400;2022-08-02T04:13:02;7.97;;;1.85;;
47103;SDS011;32853;52.164;5.400;2022-08-02T04:15:28;4.50;;;1.92;;
47103;SDS011;32853;52.164;5.400;2022-08-02T04:17:54;5.77;;;2.07;;
47103;SDS011;32853;52.164;5.400;2022-08-02T04:20:24;6.00;;;1.85;;
47103;SDS011;32853;52.164;5.400;2022-08-02T04:23:00;3.60;;;1.97;;
47103;SDS011;32853;52.164;5.400;2022-08-02T04:25:30;3.85;;;1.98;;
47103;SDS011;32853;52.164;5.400;2022-08-02T04:27:58;6.13;;;1.90;;
47103;SDS011;32853;52.164;5.400;2022-08-02T04:30:24;7.03;;;2.00;;
47103;SDS011;32853;52.164;5.400;2022-08-02T04:32:50;2.90;;;1.57;;
47103;SDS011;32853;52.164;5.400;2022-08-02T04:35:16;5.87;;;1.97;;
47103;SDS011;32853;52.164;5.400;2022-08-02T04:37:41;5.80;;;2.17;;
47103;SDS011;32853;52.164;5.400;2022-08-02T04:40:10;6.20;;;2.10;;
47103;SDS011;32853;52.164;5.400;2022-08-02T04:42:37;5.75;;;2.25;;
47103;SDS011;32853;52.164;5.400;2022-08-02T04:45:03;9.73;;;2.28;;
47103;SDS011;32853;52.164;5.400;2022-08-02T04:47:30;8.32;;;2.10;;
47103;SDS011;32853;52.164;5.400;2022-08-02T04:49:56;8.23;;;2.10;;
47103;SDS011;32853;52.164;5.400;2022-08-02T04:52:22;5.40;;;2.30;;
47103;SDS011;32853;52.164;5.400;2022-08-02T04:54:53;15.35;;;2.25;;
47103;SDS011;32853;52.164;5.400;2022-08-02T04:57:21;7.30;;;2.13;;
47103;SDS011;32853;52.164;5.400;2022-08-02T05:00:06;7.68;;;2.10;;
47103;SDS011;32853;52.164;5.400;2022-08-02T05:02:33;10.45;;;2.90;;
47103;SDS011;32853;52.164;5.400;2022-08-02T05:04:59;7.97;;;2.20;;
47103;SDS011;32853;52.164;5.400;2022-08-02T05:07:24;5.87;;;2.07;;
47103;SDS011;32853;52.164;5.400;2022-08-02T05:09:49;7.43;;;2.20;;
47103;SDS011;32853;52.164;5.400;2022-08-02T05:12:15;7.60;;;2.13;;
47103;SDS011;32853;52.164;5.400;2022-08-02T05:14:40;6.47;;;1.93;;
47103;SDS011;32853;52.164;5.400;2022-08-02T05:17:05;5.10;;;1.92;;
47103;SDS011;32853;52.164;5.400;2022-08-02T05:19:31;4.83;;;1.67;;
47103;SDS011;32853;52.164;5.400;2022-08-02T05:21:56;6.90;;;2.20;;
47103;SDS011;32853;52.164;5.400;2022-08-02T05:24:21;11.30;;;2.27;;
47103;SDS011;32853;52.164;5.400;2022-08-02T05:26:47;4.63;;;2.20;;
47103;SDS011;32853;52.164;5.400;2022-08-02T05:29:12;9.63;;;1.92;;
47103;SDS011;32853;52.164;5.400;2022-08-02T05:31:39;6.70;;;2.17;;
47103;SDS011;32853;52.164;5.400;2022-08-02T05:34:05;5.63;;;1.70;;
47103;SDS011;32853;52.164;5.400;2022-08-02T05:36:30;4.47;;;1.90;;
47103;SDS011;32853;52.164;5.400;2022-08-02T05:38:55;6.10;;;1.80;;
47103;SDS011;32853;52.164;5.400;2022-08-02T05:41:31;3.80;;;1.90;;
47103;SDS011;32853;52.164;5.400;2022-08-02T05:43:56;7.75;;;1.83;;
47103;SDS011;32853;52.164;5.400;2022-08-02T05:46:24;5.67;;;2.13;;
47103;SDS011;32853;52.164;5.400;2022-08-02T05:48:49;8.15;;;1.63;;
47103;SDS011;32853;52.164;5.400;2022-08-02T05:57:15;9.48;;;2.17;;
47103;SDS011;32853;52.164;5.400;2022-08-02T06:07:37;7.28;;;2.03;;
47103;SDS011;32853;52.164;5.400;2022-08-02T06:10:05;5.25;;;1.95;;
47103;SDS011;32853;52.164;5.400;2022-08-02T06:12:32;5.90;;;1.90;;
47103;SDS011;32853;52.164;5.400;2022-08-02T06:15:05;6.93;;;2.65;;
47103;SDS011;32853;52.164;5.400;2022-08-02T06:17:31;9.98;;;1.98;;
47103;SDS011;32853;52.164;5.400;2022-08-02T06:19:56;7.00;;;2.20;;
47103;SDS011;32853;52.164;5.400;2022-08-02T06:22:27;13.85;;;1.98;;
47103;SDS011;32853;52.164;5.400;2022-08-02T06:24:54;6.50;;;2.63;;
47103;SDS011;32853;52.164;5.400;2022-08-02T06:27:25;8.17;;;2.40;;
47103;SDS011;32853;52.164;5.400;2022-08-02T06:29:51;9.10;;;2.40;;
47103;SDS011;32853;52.164;5.400;2022-08-02T06:32:19;7.73;;;2.20;;
47103;SDS011;32853;52.164;5.400;2022-08-02T06:34:45;10.02;;;2.22;;
47103;SDS011;32853;52.164;5.400;2022-08-02T06:37:36;8.67;;;2.40;;
47103;SDS011;32853;52.164;5.400;2022-08-02T06:45:30;7.00;;;3.05;;
47103;SDS011;32853;52.164;5.400;2022-08-02T06:47:57;8.18;;;2.80;;
47103;SDS011;32853;52.164;5.400;2022-08-02T06:53:11;9.15;;;2.85;;
47103;SDS011;32853;52.164;5.400;2022-08-02T06:55:37;8.13;;;2.63;;
47103;SDS011;32853;52.164;5.400;2022-08-02T06:58:04;10.47;;;3.27;;
47103;SDS011;32853;52.164;5.400;2022-08-02T07:00:30;11.30;;;3.03;;
47103;SDS011;32853;52.164;5.400;2022-08-02T07:02:56;8.37;;;2.67;;
47103;SDS011;32853;52.164;5.400;2022-08-02T07:05:22;14.48;;;3.38;;
47103;SDS011;32853;52.164;5.400;2022-08-02T07:07:50;6.57;;;3.60;;
47103;SDS011;32853;52.164;5.400;2022-08-02T07:10:15;8.57;;;3.57;;
47103;SDS011;32853;52.164;5.400;2022-08-02T07:12:41;9.17;;;3.70;;
47103;SDS011;32853;52.164;5.400;2022-08-02T07:15:06;10.30;;;4.20;;
47103;SDS011;32853;52.164;5.400;2022-08-02T07:17:34;8.38;;;3.95;;
47103;SDS011;32853;52.164;5.400;2022-08-02T07:20:00;6.93;;;4.23;;
47103;SDS011;32853;52.164;5.400;2022-08-02T07:22:26;12.82;;;4.03;;
47103;SDS011;32853;52.164;5.400;2022-08-02T07:24:52;6.32;;;3.67;;
47103;SDS011;32853;52.164;5.400;2022-08-02T07:27:21;7.15;;;3.65;;
47103;SDS011;32853;52.164;5.400;2022-08-02T07:29:46;13.43;;;4.05;;
47103;SDS011;32853;52.164;5.400;2022-08-02T07:32:13;8.63;;;3.97;;
47103;SDS011;32853;52.164;5.400;2022-08-02T07:34:39;12.20;;;4.32;;
47103;SDS011;32853;52.164;5.400;2022-08-02T07:37:04;8.47;;;4.57;;
47103;SDS011;32853;52.164;5.400;2022-08-02T07:39:37;10.83;;;3.97;;
47103;SDS011;32853;52.164;5.400;2022-08-02T07:42:02;6.40;;;4.40;;
47103;SDS011;32853;52.164;5.400;2022-08-02T07:44:29;10.77;;;4.00;;
47103;SDS011;32853;52.164;5.400;2022-08-02T07:46:59;8.20;;;3.70;;
47103;SDS011;32853;52.164;5.400;2022-08-02T07:49:26;7.78;;;4.57;;
47103;SDS011;32853;52.164;5.400;2022-08-02T07:51:52;8.88;;;4.90;;
47103;SDS011;32853;52.164;5.400;2022-08-02T07:54:18;8.73;;;4.43;;
47103;SDS011;32853;52.164;5.400;2022-08-02T07:56:44;10.05;;;5.18;;
47103;SDS011;32853;52.164;5.400;2022-08-02T07:59:09;10.03;;;5.30;;
47103;SDS011;32853;52.164;5.400;2022-08-02T08:01:35;11.63;;;5.60;;
47103;SDS011;32853;52.164;5.400;2022-08-02T08:04:01;11.85;;;5.50;;
47103;SDS011;32853;52.164;5.400;2022-08-02T08:06:29;12.40;;;6.05;;
47103;SDS011;32853;52.164;5.400;2022-08-02T08:08:55;11.73;;;5.80;;
47103;SDS011;32853;52.164;5.400;2022-08-02T08:11:21;14.88;;;6.15;;
47103;SDS011;32853;52.164;5.400;2022-08-02T08:13:49;11.23;;;6.43;;
47103;SDS011;32853;52.164;5.400;2022-08-02T08:16:14;12.30;;;5.75;;
47103;SDS011;32853;52.164;5.400;2022-08-02T08:18:40;13.23;;;5.95;;
47103;SDS011;32853;52.164;5.400;2022-08-02T08:21:06;14.85;;;5.57;;
47103;SDS011;32853;52.164;5.400;2022-08-02T08:23:31;10.93;;;5.30;;
47103;SDS011;32853;52.164;5.400;2022-08-02T08:26:05;11.03;;;5.50;;
47103;SDS011;32853;52.164;5.400;2022-08-02T08:28:30;12.70;;;5.60;;
47103;SDS011;32853;52.164;5.400;2022-08-02T08:30:55;11.20;;;4.80;;
47103;SDS011;32853;52.164;5.400;2022-08-02T08:33:25;8.43;;;4.50;;
47103;SDS011;32853;52.164;5.400;2022-08-02T08:35:51;8.67;;;3.83;;
47103;SDS011;32853;52.164;5.400;2022-08-02T08:38:16;12.60;;;4.30;;
47103;SDS011;32853;52.164;5.400;2022-08-02T08:40:41;7.93;;;3.47;;
47103;SDS011;32853;52.164;5.400;2022-08-02T08:43:08;4.30;;;3.30;;
47103;SDS011;32853;52.164;5.400;2022-08-02T08:45:42;8.18;;;3.33;;
47103;SDS011;32853;52.164;5.400;2022-08-02T08:48:12;4.13;;;2.10;;
47103;SDS011;32853;52.164;5.400;2022-08-02T08:50:46;6.65;;;2.10;;
47103;SDS011;32853;52.164;5.400;2022-08-02T08:53:32;4.83;;;2.30;;
47103;SDS011;32853;52.164;5.400;2022-08-02T08:56:03;7.07;;;2.30;;
47103;SDS011;32853;52.164;5.400;2022-08-02T08:58:30;4.13;;;2.10;;
47103;SDS011;32853;52.164;5.400;2022-08-02T09:00:55;6.85;;;3.00;;
47103;SDS011;32853;52.164;5.400;2022-08-02T09:03:20;5.60;;;2.50;;
47103;SDS011;32853;52.164;5.400;2022-08-02T09:05:46;3.87;;;2.00;;
47103;SDS011;32853;52.164;5.400;2022-08-02T09:08:11;5.33;;;2.20;;
47103;SDS011;32853;52.164;5.400;2022-08-02T09:10:38;7.30;;;2.30;;
47103;SDS011;32853;52.164;5.400;2022-08-02T09:13:24;6.70;;;2.08;;
47103;SDS011;32853;52.164;5.400;2022-08-02T09:15:55;6.43;;;2.30;;
47103;SDS011;32853;52.164;5.400;2022-08-02T09:18:31;3.83;;;1.92;;
47103;SDS011;32853;52.164;5.400;2022-08-02T09:20:59;4.10;;;1.90;;
47103;SDS011;32853;52.164;5.400;2022-08-02T09:23:32;4.75;;;2.22;;
47103;SDS011;32853;52.164;5.400;2022-08-02T09:26:21;3.47;;;2.28;;
47103;SDS011;32853;52.164;5.400;2022-08-02T09:28:51;5.78;;;2.80;;
47103;SDS011;32853;52.164;5.400;2022-08-02T09:31:23;6.75;;;3.00;;
47103;SDS011;32853;52.164;5.400;2022-08-02T09:33:52;4.53;;;2.40;;
47103;SDS011;32853;52.164;5.400;2022-08-02T09:36:20;8.57;;;2.58;;
47103;SDS011;32853;52.164;5.400;2022-08-02T09:38:58;6.07;;;2.50;;
47103;SDS011;32853;52.164;5.400;2022-08-02T09:41:31;7.53;;;3.47;;
47103;SDS011;32853;52.164;5.400;2022-08-02T09:43:59;6.05;;;3.67;;
47103;SDS011;32853;52.164;5.400;2022-08-02T09:46:27;4.60;;;2.70;;
47103;SDS011;32853;52.164;5.400;2022-08-02T09:51:30;5.90;;;3.75;;
47103;SDS011;32853;52.164;5.400;2022-08-02T09:53:56;7.13;;;3.42;;
47103;SDS011;32853;52.164;5.400;2022-08-02T09:56:24;8.57;;;3.85;;
47103;SDS011;32853;52.164;5.400;2022-08-02T09:58:51;7.70;;;4.07;;
47103;SDS011;32853;52.164;5.400;2022-08-02T10:01:19;6.75;;;3.45;;
47103;SDS011;32853;52.164;5.400;2022-08-02T10:03:56;7.75;;;4.28;;
47103;SDS011;32853;52.164;5.400;2022-08-02T10:06:23;8.55;;;4.30;;
47103;SDS011;32853;52.164;5.400;2022-08-02T10:08:50;6.72;;;3.75;;
47103;SDS011;32853;52.164;5.400;2022-08-02T10:11:24;6.35;;;3.75;;
47103;SDS011;32853;52.164;5.400;2022-08-02T10:14:09;10.25;;;4.43;;
47103;SDS011;32853;52.164;5.400;2022-08-02T10:16:36;5.97;;;3.58;;
47103;SDS011;32853;52.164;5.400;2022-08-02T10:19:04;6.63;;;3.78;;
47103;SDS011;32853;52.164;5.400;2022-08-02T10:21:44;8.35;;;3.60;;
47103;SDS011;32853;52.164;5.400;2022-08-02T10:24:14;10.13;;;3.90;;
47103;SDS011;32853;52.164;5.400;2022-08-02T10:26:42;6.10;;;3.28;;
47103;SDS011;32853;52.164;5.400;2022-08-02T10:29:10;7.70;;;3.50;;
47103;SDS011;32853;52.164;5.400;2022-08-02T10:31:43;4.80;;;2.90;;
47103;SDS011;32853;52.164;5.400;2022-08-02T10:34:20;7.60;;;3.42;;
47103;SDS011;32853;52.164;5.400;2022-08-02T10:36:47;5.97;;;3.28;;
47103;SDS011;32853;52.164;5.400;2022-08-02T10:39:17;5.55;;;3.13;;
47103;SDS011;32853;52.164;5.400;2022-08-02T10:41:48;6.68;;;3.10;;
47103;SDS011;32853;52.164;5.400;2022-08-02T10:44:33;4.05;;;2.67;;
47103;SDS011;32853;52.164;5.400;2022-08-02T10:49:48;6.65;;;3.25;;
47103;SDS011;32853;52.164;5.400;2022-08-02T10:52:14;3.83;;;2.50;;
47103;SDS011;32853;52.164;5.400;2022-08-02T10:54:41;4.50;;;2.40;;
47103;SDS011;32853;52.164;5.400;2022-08-02T10:57:19;2.45;;;1.55;;
47103;SDS011;32853;52.164;5.400;2022-08-02T10:59:50;3.25;;;2.00;;
47103;SDS011;32853;52.164;5.400;2022-08-02T11:05:04;3.00;;;2.27;;
47103;SDS011;32853;52.164;5.400;2022-08-02T11:07:35;4.85;;;1.90;;
47103;SDS011;32853;52.164;5.400;2022-08-02T11:15:27;2.70;;;1.42;;
47103;SDS011;32853;52.164;5.400;2022-08-02T11:17:53;3.97;;;1.87;;
47103;SDS011;32853;52.164;5.400;2022-08-02T11:20:20;3.95;;;1.80;;
47103;SDS011;32853;52.164;5.400;2022-08-02T11:22:47;1.60;;;1.10;;
47103;SDS011;32853;52.164;5.400;2022-08-02T11:27:48;3.97;;;1.17;;
47103;SDS011;32853;52.164;5.400;2022-08-02T11:30:20;4.97;;;1.20;;
47103;SDS011;32853;52.164;5.400;2022-08-02T11:32:47;3.10;;;1.02;;
47103;SDS011;32853;52.164;5.400;2022-08-02T11:35:13;3.20;;;1.00;;
47103;SDS011;32853;52.164;5.400;2022-08-02T11:37:43;3.63;;;1.10;;
47103;SDS011;32853;52.164;5.400;2022-08-02T11:42:37;3.30;;;1.20;;
47103;SDS011;32853;52.164;5.400;2022-08-02T11:45:04;1.77;;;0.80;;
47103;SDS011;32853;52.164;5.400;2022-08-02T11:47:32;1.88;;;1.02;;
47103;SDS011;32853;52.164;5.400;2022-08-02T11:50:07;2.30;;;0.80;;
47103;SDS011;32853;52.164;5.400;2022-08-02T11:52:34;2.97;;;0.70;;
47103;SDS011;32853;52.164;5.400;2022-08-02T11:55:00;3.45;;;0.60;;
47103;SDS011;32853;52.164;5.400;2022-08-02T11:57:26;1.10;;;0.60;;
47103;SDS011;32853;52.164;5.400;2022-08-02T11:59:52;1.98;;;0.70;;
47103;SDS011;32853;52.164;5.400;2022-08-02T12:02:19;1.90;;;0.60;;
47103;SDS011;32853;52.164;5.400;2022-08-02T12:07:24;2.00;;;1.00;;
47103;SDS011;32853;52.164;5.400;2022-08-02T12:09:58;3.45;;;0.77;;
47103;SDS011;32853;52.164;5.400;2022-08-02T12:12:24;2.13;;;0.70;;
47103;SDS011;32853;52.164;5.400;2022-08-02T12:14:55;1.55;;;0.60;;
47103;SDS011;32853;52.164;5.400;2022-08-02T12:17:22;3.43;;;0.60;;
47103;SDS011;32853;52.164;5.400;2022-08-02T12:20:07;1.50;;;0.60;;
47103;SDS011;32853;52.164;5.400;2022-08-02T12:22:33;1.43;;;0.60;;
47103;SDS011;32853;52.164;5.400;2022-08-02T12:25:13;1.67;;;0.60;;
47103;SDS011;32853;52.164;5.400;2022-08-02T12:27:48;0.95;;;0.55;;
47103;SDS011;32853;52.164;5.400;2022-08-02T12:30:15;5.40;;;0.70;;
47103;SDS011;32853;52.164;5.400;2022-08-02T12:32:42;2.75;;;0.60;;
47103;SDS011;32853;52.164;5.400;2022-08-02T12:35:12;3.42;;;0.65;;
47103;SDS011;32853;52.164;5.400;2022-08-02T12:37:43;3.10;;;0.73;;
47103;SDS011;32853;52.164;5.400;2022-08-02T12:40:43;2.30;;;0.75;;
47103;SDS011;32853;52.164;5.400;2022-08-02T12:45:50;3.30;;;0.70;;
47103;SDS011;32853;52.164;5.400;2022-08-02T12:48:35;1.55;;;0.52;;
47103;SDS011;32853;52.164;5.400;2022-08-02T12:54:15;4.93;;;0.75;;
47103;SDS011;32853;52.164;5.400;2022-08-02T12:56:43;2.97;;;0.80;;
47103;SDS011;32853;52.164;5.400;2022-08-02T12:59:09;3.15;;;0.77;;
47103;SDS011;32853;52.164;5.400;2022-08-02T13:01:34;3.38;;;0.80;;
47103;SDS011;32853;52.164;5.400;2022-08-02T13:04:00;1.45;;;0.70;;
47103;SDS011;32853;52.164;5.400;2022-08-02T13:06:26;3.92;;;1.08;;
47103;SDS011;32853;52.164;5.400;2022-08-02T13:08:52;2.73;;;1.00;;
47103;SDS011;32853;52.164;5.400;2022-08-02T13:11:19;2.60;;;0.80;;
47103;SDS011;32853;52.164;5.400;2022-08-02T13:13:46;5.30;;;1.35;;
47103;SDS011;32853;52.164;5.400;2022-08-02T13:16:11;2.23;;;0.80;;
47103;SDS011;32853;52.164;5.400;2022-08-02T13:18:38;2.50;;;0.77;;
47103;SDS011;32853;52.164;5.400;2022-08-02T13:21:04;3.38;;;0.80;;
47103;SDS011;32853;52.164;5.400;2022-08-02T13:23:31;3.65;;;1.08;;
47103;SDS011;32853;52.164;5.400;2022-08-02T13:25:57;2.83;;;1.03;;
47103;SDS011;32853;52.164;5.400;2022-08-02T13:28:22;5.80;;;1.07;;
47103;SDS011;32853;52.164;5.400;2022-08-02T13:30:48;2.80;;;0.70;;
47103;SDS011;32853;52.164;5.400;2022-08-02T13:33:14;4.10;;;0.60;;
47103;SDS011;32853;52.164;5.400;2022-08-02T13:35:40;1.73;;;0.70;;
47103;SDS011;32853;52.164;5.400;2022-08-02T13:38:06;3.35;;;0.60;;
47103;SDS011;32853;52.164;5.400;2022-08-02T13:40:31;2.00;;;0.80;;
47103;SDS011;32853;52.164;5.400;2022-08-02T13:42:57;2.00;;;0.70;;
47103;SDS011;32853;52.164;5.400;2022-08-02T13:45:23;3.97;;;0.80;;
47103;SDS011;32853;52.164;5.400;2022-08-02T13:47:49;2.63;;;0.60;;
47103;SDS011;32853;52.164;5.400;2022-08-02T13:50:14;4.63;;;0.77;;
47103;SDS011;32853;52.164;5.400;2022-08-02T13:52:40;3.83;;;0.73;;
47103;SDS011;32853;52.164;5.400;2022-08-02T13:55:05;1.20;;;0.50;;
47103;SDS011;32853;52.164;5.400;2022-08-02T13:57:31;2.25;;;0.50;;
47103;SDS011;32853;52.164;5.400;2022-08-02T13:59:56;4.87;;;1.10;;
47103;SDS011;32853;52.164;5.400;2022-08-02T14:02:22;2.28;;;0.50;;
47103;SDS011;32853;52.164;5.400;2022-08-02T14:04:47;2.13;;;0.50;;
47103;SDS011;32853;52.164;5.400;2022-08-02T14:07:15;6.63;;;0.57;;
47103;SDS011;32853;52.164;5.400;2022-08-02T14:09:40;2.33;;;0.90;;
47103;SDS011;32853;52.164;5.400;2022-08-02T14:12:07;1.52;;;0.55;;
47103;SDS011;32853;52.164;5.400;2022-08-02T14:14:34;1.65;;;0.70;;
47103;SDS011;32853;52.164;5.400;2022-08-02T14:16:59;3.05;;;0.60;;
47103;SDS011;32853;52.164;5.400;2022-08-02T14:19:24;4.37;;;0.90;;
47103;SDS011;32853;52.164;5.400;2022-08-02T14:21:51;2.40;;;0.80;;
47103;SDS011;32853;52.164;5.400;2022-08-02T14:24:20;2.75;;;0.90;;
47103;SDS011;32853;52.164;5.400;2022-08-02T14:26:45;3.42;;;0.70;;
47103;SDS011;32853;52.164;5.400;2022-08-02T14:29:12;3.10;;;0.70;;
47103;SDS011;32853;52.164;5.400;2022-08-02T14:31:38;3.92;;;0.70;;
47103;SDS011;32853;52.164;5.400;2022-08-02T14:34:03;4.32;;;0.75;;
47103;SDS011;32853;52.164;5.400;2022-08-02T14:36:29;4.07;;;1.10;;
47103;SDS011;32853;52.164;5.400;2022-08-02T14:38:54;3.00;;;0.80;;
47103;SDS011;32853;52.164;5.400;2022-08-02T14:41:20;4.47;;;0.70;;
47103;SDS011;32853;52.164;5.400;2022-08-02T14:43:46;3.33;;;0.70;;
47103;SDS011;32853;52.164;5.400;2022-08-02T14:46:37;4.10;;;0.75;;
47103;SDS011;32853;52.164;5.400;2022-08-02T14:49:04;4.33;;;0.70;;
47103;SDS011;32853;52.164;5.400;2022-08-02T14:51:32;1.90;;;0.60;;
47103;SDS011;32853;52.164;5.400;2022-08-02T14:53:58;3.70;;;0.95;;
47103;SDS011;32853;52.164;5.400;2022-08-02T14:56:24;3.08;;;0.70;;
47103;SDS011;32853;52.164;5.400;2022-08-02T14:58:50;3.42;;;0.90;;
47103;SDS011;32853;52.164;5.400;2022-08-02T15:01:16;7.45;;;1.25;;
47103;SDS011;32853;52.164;5.400;2022-08-02T15:03:41;2.60;;;0.70;;
47103;SDS011;32853;52.164;5.400;2022-08-02T15:06:06;4.97;;;1.20;;
47103;SDS011;32853;52.164;5.400;2022-08-02T15:08:32;3.60;;;0.73;;
47103;SDS011;32853;52.164;5.400;2022-08-02T15:10:57;7.37;;;1.10;;
47103;SDS011;32853;52.164;5.400;2022-08-02T15:13:25;2.17;;;0.70;;
47103;SDS011;32853;52.164;5.400;2022-08-02T15:15:51;5.77;;;1.03;;
47103;SDS011;32853;52.164;5.400;2022-08-02T15:18:16;3.10;;;0.60;;
47103;SDS011;32853;52.164;5.400;2022-08-02T15:20:41;3.77;;;0.70;;
47103;SDS011;32853;52.164;5.400;2022-08-02T15:23:07;6.43;;;0.90;;
47103;SDS011;32853;52.164;5.400;2022-08-02T15:25:32;6.47;;;0.80;;
47103;SDS011;32853;52.164;5.400;2022-08-02T15:27:57;3.80;;;0.60;;
47103;SDS011;32853;52.164;5.400;2022-08-02T15:30:25;3.28;;;1.13;;
47103;SDS011;32853;52.164;5.400;2022-08-02T15:32:50;1.77;;;0.70;;
47103;SDS011;32853;52.164;5.400;2022-08-02T15:35:16;5.47;;;0.50;;
47103;SDS011;32853;52.164;5.400;2022-08-02T15:37:41;2.40;;;0.70;;
47103;SDS011;32853;52.164;5.400;2022-08-02T15:40:07;2.17;;;0.50;;
47103;SDS011;32853;52.164;5.400;2022-08-02T15:42:33;3.38;;;0.82;;
47103;SDS011;32853;52.164;5.400;2022-08-02T15:44:58;4.67;;;0.80;;
47103;SDS011;32853;52.164;5.400;2022-08-02T15:50:15;2.47;;;0.60;;
47103;SDS011;32853;52.164;5.400;2022-08-02T15:52:41;4.78;;;0.68;;